BIENTÔT MET'MAP
version 2.0 !

Prévue avant fin octobre,
la nouvelle version sera
plus belle, plus complète
et hébergée sur un serveur
3 fois plus puissant...
et toujours gratuite !


Pas compatible ?
Essayez la version Mobile !

SE CONNECTER : | S'inscrire | Disclaimer | Découvrir Orbifly |
Code OACI :

TAF - LGSM Aristarchos of Samos - 27 May 2020 05:23 UTC - Data Source NOAA   


- Altitude de l'aérodrome : 19 ft
- Code IATA : SMI
- Pas de NOTAMs connus.


LGSM - Aristarchos of Samos

Dernier METAR connu : 2015/08/11 07:50 LGSM 110750Z 16004KT CAVOK 29/22 Q1010
TAF TAF LGSM
Valide du 27 à 03h jusqu'au 27 à 12h UTC


270200Z 2703/2712 34010KT 9999 SCT025 SCT060
BECMG 2704/2706 VRB05KT
PROB40
TEMPO 2703/2712 5000 RA FEW018TCU BKN025
PROB30 2703/2712 3000 TSRA SCT015 FEW018CB BKN020

Source NOAA


MET'MAP, la Météo Aéronautique d'un coup d'oeil ! - Copyright ORBIFLY Décembre 2007

Développement & Programmation : Alexandra Zaïnal
Co-Développement : Marc-Olivier Méhu
Soutien technique & logistique : Manuel Goepfert
Conception & Financement : Baudouin d'Aumeries